createdAt,value
2022-08-20T00:02:19.847Z,21.60
2022-08-20T00:05:05.993Z,21.74
2022-08-20T00:07:51.952Z,21.52
2022-08-20T00:10:42.187Z,21.37
2022-08-20T00:13:33.474Z,21.58
2022-08-20T00:16:21.189Z,21.63
2022-08-20T00:19:09.420Z,21.64
2022-08-20T00:21:58.127Z,21.51
2022-08-20T00:24:44.635Z,21.32
2022-08-20T00:27:30.685Z,21.52
2022-08-20T00:30:16.959Z,21.71
2022-08-20T00:33:06.804Z,21.69
2022-08-20T00:35:55.267Z,21.65
2022-08-20T00:38:43.715Z,21.66
2022-08-20T00:41:29.999Z,21.64
2022-08-20T00:44:18.492Z,21.48
2022-08-20T00:47:04.626Z,21.27
2022-08-20T00:49:51.074Z,21.32
2022-08-20T00:52:37.471Z,21.55
2022-08-20T00:55:27.484Z,21.80
2022-08-20T00:58:17.003Z,21.69
2022-08-20T01:01:04.037Z,21.52
2022-08-20T01:03:50.565Z,21.75
2022-08-20T01:06:38.513Z,21.57
2022-08-20T01:09:49.905Z,21.52
2022-08-20T01:12:31.782Z,21.53
2022-08-20T01:15:19.878Z,21.40
2022-08-20T01:18:12.488Z,21.12
2022-08-20T01:21:01.646Z,21.03
2022-08-20T01:24:04.390Z,20.96
2022-08-20T01:26:50.530Z,20.95
2022-08-20T01:29:39.763Z,20.83
2022-08-20T01:32:25.550Z,20.90
2022-08-20T01:35:11.477Z,20.95
2022-08-20T01:37:57.964Z,21.02
2022-08-20T01:40:50.533Z,21.06
2022-08-20T01:43:37.003Z,21.05
2022-08-20T01:46:36.752Z,21.06
2022-08-20T01:49:31.736Z,21.02
2022-08-20T01:52:33.932Z,21.18
2022-08-20T01:55:19.603Z,21.18
2022-08-20T01:58:06.866Z,21.26
2022-08-20T02:00:52.796Z,21.08
2022-08-20T02:03:42.931Z,21.15
2022-08-20T02:06:33.697Z,21.19
2022-08-20T02:09:19.786Z,21.08
2022-08-20T02:12:08.869Z,21.13
2022-08-20T02:14:55.012Z,21.18
2022-08-20T02:17:42.006Z,21.24
2022-08-20T02:20:30.200Z,21.24
2022-08-20T02:23:16.494Z,21.26
2022-08-20T02:26:02.433Z,21.30
2022-08-20T02:28:50.708Z,21.13
2022-08-20T02:31:37.678Z,21.17
2022-08-20T02:34:44.307Z,21.03
2022-08-20T02:37:29.893Z,20.89
2022-08-20T02:40:18.403Z,20.96
2022-08-20T02:43:13.951Z,21.27
2022-08-20T02:46:00.559Z,21.19
2022-08-20T02:48:46.507Z,21.05
2022-08-20T02:51:32.977Z,21.03
2022-08-20T02:54:19.066Z,21.01
2022-08-20T02:57:05.332Z,20.98
2022-08-20T02:59:51.263Z,20.96
2022-08-20T03:02:37.571Z,20.95
2022-08-20T03:05:23.638Z,20.95
2022-08-20T03:08:11.879Z,20.83
2022-08-20T03:10:57.992Z,20.75
2022-08-20T03:13:44.320Z,20.80
2022-08-20T03:16:29.936Z,20.76
2022-08-20T03:19:16.759Z,20.76
2022-08-20T03:22:02.529Z,20.78
2022-08-20T03:24:48.631Z,20.82
2022-08-20T03:27:36.529Z,20.88
2022-08-20T03:30:24.988Z,20.89
2022-08-20T03:33:10.965Z,20.94
2022-08-20T03:35:57.740Z,20.92
2022-08-20T03:38:43.419Z,20.98
2022-08-20T03:41:29.351Z,20.95
2022-08-20T03:44:15.219Z,20.95
2022-08-20T03:47:03.604Z,20.90
2022-08-20T03:49:49.718Z,20.89
2022-08-20T03:52:36.521Z,20.88
2022-08-20T03:55:23.262Z,20.93
2022-08-20T03:58:10.069Z,20.90
2022-08-20T04:00:56.424Z,20.89
2022-08-20T04:03:42.520Z,20.83
2022-08-20T04:06:28.556Z,20.71
2022-08-20T04:09:15.209Z,20.79
2022-08-20T04:12:01.301Z,20.77
2022-08-20T04:14:47.295Z,20.86
2022-08-20T04:17:33.085Z,20.63
2022-08-20T04:20:22.599Z,20.46
2022-08-20T04:23:08.297Z,20.65
2022-08-20T04:25:56.600Z,20.63
2022-08-20T04:28:42.646Z,20.78
2022-08-20T04:31:28.476Z,20.81
2022-08-20T04:34:14.296Z,20.76
2022-08-20T04:37:00.499Z,20.82
2022-08-20T04:39:46.310Z,20.87
2022-08-20T04:42:32.916Z,20.78
2022-08-20T04:45:20.276Z,20.79
2022-08-20T04:48:10.551Z,20.81
2022-08-20T04:50:58.084Z,20.78
2022-08-20T04:53:51.754Z,20.71
2022-08-20T04:56:38.531Z,20.55
2022-08-20T04:59:24.450Z,20.64
2022-08-20T05:02:10.467Z,20.81
2022-08-20T05:05:02.128Z,20.86
2022-08-20T05:07:48.241Z,20.93
2022-08-20T05:10:34.423Z,21.07
2022-08-20T05:13:24.080Z,21.12
2022-08-20T05:16:12.585Z,21.26
2022-08-20T05:18:58.294Z,21.34
2022-08-20T05:21:44.157Z,21.54
2022-08-20T05:24:30.280Z,21.28
2022-08-20T05:27:24.673Z,21.22
2022-08-20T05:30:11.735Z,21.40
2022-08-20T05:33:05.707Z,21.44
2022-08-20T05:35:52.679Z,21.71
2022-08-20T05:38:38.651Z,21.80
2022-08-20T05:41:27.492Z,21.92
2022-08-20T05:44:15.926Z,22.08
2022-08-20T05:47:01.703Z,22.29
2022-08-20T05:49:50.278Z,22.49
2022-08-20T05:52:36.550Z,22.61
2022-08-20T05:55:22.524Z,22.80
2022-08-20T05:58:15.773Z,22.93
2022-08-20T06:01:03.798Z,23.04
2022-08-20T06:03:50.314Z,23.03
2022-08-20T06:06:44.508Z,22.97
2022-08-20T06:09:33.336Z,23.02
2022-08-20T06:12:19.183Z,23.09
2022-08-20T06:15:06.524Z,23.12
2022-08-20T06:17:58.131Z,23.11
2022-08-20T06:20:44.701Z,23.23
2022-08-20T06:23:50.372Z,23.24
2022-08-20T06:26:37.090Z,23.26
2022-08-20T06:29:23.072Z,23.43
2022-08-20T06:32:08.965Z,23.64
2022-08-20T06:34:54.875Z,23.77
2022-08-20T06:37:42.083Z,23.95
2022-08-20T06:40:28.535Z,24.18
2022-08-20T06:43:14.882Z,24.29
2022-08-20T06:46:00.932Z,24.47
2022-08-20T06:48:46.926Z,24.55
2022-08-20T06:51:33.515Z,24.61
2022-08-20T06:54:19.707Z,24.67
2022-08-20T06:57:05.697Z,24.82
2022-08-20T06:59:54.953Z,24.90
2022-08-20T07:02:41.868Z,24.92
2022-08-20T07:05:33.980Z,24.90
2022-08-20T07:08:19.866Z,24.81
2022-08-20T07:11:05.909Z,24.76
2022-08-20T07:13:52.112Z,24.74
2022-08-20T07:16:38.242Z,24.62
2022-08-20T07:19:24.345Z,24.69
2022-08-20T07:22:10.386Z,24.65
2022-08-20T07:24:56.529Z,24.74
2022-08-20T07:27:43.533Z,24.73
2022-08-20T07:30:29.458Z,24.62
2022-08-20T07:33:16.585Z,24.29
2022-08-20T07:36:04.460Z,24.02
2022-08-20T07:38:51.341Z,23.76
2022-08-20T07:41:37.250Z,23.36
2022-08-20T07:44:38.670Z,23.44
2022-08-20T07:47:24.577Z,23.29
2022-08-20T07:50:16.514Z,23.04
2022-08-20T07:53:02.311Z,22.80
2022-08-20T07:55:57.131Z,22.85
2022-08-20T07:58:50.836Z,22.60
2022-08-20T08:01:37.007Z,22.34
2022-08-20T08:04:23.054Z,22.17
2022-08-20T08:07:08.806Z,21.91
2022-08-20T08:10:10.206Z,21.41
2022-08-20T08:12:59.659Z,20.75
2022-08-20T08:15:48.688Z,20.50
2022-08-20T08:18:45.549Z,20.39
2022-08-20T08:21:32.210Z,20.12
2022-08-20T08:24:21.002Z,20.11
2022-08-20T08:27:10.180Z,20.05
2022-08-20T08:29:56.084Z,20.12
2022-08-20T08:32:42.266Z,19.86
2022-08-20T08:35:28.607Z,19.96
2022-08-20T08:38:15.213Z,19.81
2022-08-20T08:41:41.102Z,19.99
2022-08-20T08:44:30.722Z,19.85
2022-08-20T08:47:27.080Z,19.65
2022-08-20T08:50:49.938Z,19.84
2022-08-20T08:53:37.143Z,19.76
2022-08-20T08:56:29.236Z,19.62
2022-08-20T08:59:15.207Z,19.44
2022-08-20T09:02:02.292Z,19.30
2022-08-20T12:44:03.187Z,21.31
2022-08-20T12:46:31.168Z,21.32
2022-08-20T12:48:58.641Z,21.36
2022-08-20T12:51:26.109Z,21.33
2022-08-20T12:53:56.942Z,21.54
2022-08-20T12:56:24.553Z,21.41
2022-08-20T12:58:57.881Z,21.45
2022-08-20T13:01:25.699Z,21.56
2022-08-20T13:03:53.612Z,21.60
2022-08-20T13:06:26.625Z,21.72
2022-08-20T13:08:56.507Z,21.74
2022-08-20T13:11:23.975Z,21.92
2022-08-20T13:13:52.198Z,21.87
2022-08-20T13:16:20.442Z,21.75
2022-08-20T13:18:47.896Z,21.72
2022-08-20T13:21:15.448Z,21.76
2022-08-20T13:23:47.107Z,21.89
2022-08-20T13:26:14.677Z,22.03
2022-08-20T13:28:42.111Z,21.87
2022-08-20T13:31:10.300Z,21.95
2022-08-20T13:33:38.090Z,21.93
2022-08-20T13:36:05.706Z,21.82
2022-08-20T13:38:33.730Z,21.97
2022-08-20T13:41:01.126Z,21.90
2022-08-20T13:43:33.531Z,21.96
2022-08-20T13:46:01.750Z,21.84
2022-08-20T13:48:29.147Z,21.93
2022-08-20T13:50:56.901Z,21.97
2022-08-20T13:53:26.214Z,21.90
2022-08-20T13:55:54.607Z,21.87
2022-08-20T13:58:30.516Z,22.16
2022-08-20T14:00:58.276Z,21.96
2022-08-20T14:03:26.196Z,21.85
2022-08-20T14:05:54.665Z,21.96
2022-08-20T14:08:24.071Z,22.15
2022-08-20T14:10:52.325Z,22.39
2022-08-20T14:13:38.015Z,22.24
2022-08-20T14:16:06.045Z,22.45
2022-08-20T14:18:53.400Z,22.28
2022-08-20T14:21:21.367Z,22.22
2022-08-20T14:23:49.140Z,22.24
2022-08-20T14:26:22.023Z,22.39
2022-08-20T14:28:50.525Z,22.37
2022-08-20T14:31:18.181Z,22.34
2022-08-20T14:33:45.623Z,22.25
2022-08-20T14:36:13.817Z,22.34
2022-08-20T14:38:41.763Z,22.47
2022-08-20T14:41:15.042Z,22.40
2022-08-20T14:43:42.879Z,22.30
2022-08-20T14:46:10.783Z,22.41
2022-08-20T14:48:39.992Z,22.35
2022-08-20T14:51:07.956Z,22.28
2022-08-20T14:53:39.833Z,22.26
2022-08-20T14:56:08.524Z,22.28
2022-08-20T14:58:35.966Z,22.34
2022-08-20T15:01:03.492Z,22.29
2022-08-20T15:03:31.597Z,22.35
2022-08-20T15:05:59.252Z,22.41
2022-08-20T15:08:28.365Z,22.54
2022-08-20T15:10:56.958Z,22.49
2022-08-20T15:13:29.551Z,22.48
2022-08-20T15:15:57.722Z,22.58
2022-08-20T15:18:25.469Z,22.56
2022-08-20T15:21:10.275Z,22.34
2022-08-20T15:23:38.390Z,22.51
2022-08-20T15:26:05.982Z,22.71
2022-08-20T15:28:33.659Z,22.55
2022-08-20T15:31:01.607Z,22.56
2022-08-20T15:33:34.510Z,22.52
2022-08-20T15:36:03.211Z,22.42
2022-08-20T15:38:31.145Z,22.27
2022-08-20T15:40:59.588Z,22.34
2022-08-20T15:43:29.231Z,22.19
2022-08-20T15:46:01.777Z,22.12
2022-08-20T15:52:41.530Z,21.83
2022-08-20T15:55:12.948Z,21.81
2022-08-20T15:58:01.854Z,21.59
2022-08-20T16:00:49.589Z,21.90
2022-08-20T16:03:25.114Z,21.91
2022-08-20T16:06:01.702Z,21.98
2022-08-20T16:08:52.105Z,22.04
2022-08-20T16:11:32.695Z,22.05
2022-08-20T16:14:20.305Z,22.00
2022-08-20T16:16:59.102Z,22.05
2022-08-20T16:20:06.797Z,22.11
2022-08-20T16:22:43.606Z,22.03
2022-08-20T16:25:13.123Z,21.94
2022-08-20T16:28:13.014Z,21.92
2022-08-20T16:30:48.679Z,21.96
2022-08-20T16:33:34.911Z,21.91
2022-08-20T16:36:33.378Z,22.01
2022-08-20T16:39:08.413Z,21.81
2022-08-20T16:41:55.159Z,21.73
2022-08-20T16:44:36.084Z,21.73
2022-08-20T16:47:16.707Z,21.72
2022-08-20T16:50:01.003Z,21.58
2022-08-20T16:52:28.926Z,21.64
2022-08-20T16:54:56.915Z,21.59
2022-08-20T16:57:27.571Z,21.45
2022-08-20T17:00:05.573Z,21.46
2022-08-20T17:02:33.188Z,21.48
2022-08-20T17:05:14.559Z,21.42
2022-08-20T17:08:04.028Z,21.28
2022-08-20T17:10:35.875Z,21.20
2022-08-20T17:13:14.864Z,21.41
2022-08-20T17:15:43.955Z,21.41
2022-08-20T17:18:38.472Z,21.31
2022-08-20T17:21:25.170Z,21.26
2022-08-20T17:23:57.187Z,21.14
2022-08-20T17:26:30.230Z,21.16
2022-08-20T17:29:00.881Z,20.99
2022-08-20T17:31:38.497Z,20.93
2022-08-20T17:34:32.821Z,20.94
2022-08-20T17:37:08.343Z,20.94
2022-08-20T17:39:45.398Z,20.96
2022-08-20T17:42:25.650Z,20.88
2022-08-20T17:45:36.848Z,20.75
2022-08-20T17:48:53.078Z,20.65
2022-08-20T17:51:26.054Z,20.66
2022-08-20T17:54:15.962Z,20.72
2022-08-20T17:56:44.108Z,20.78
2022-08-20T18:00:00.293Z,20.70
2022-08-20T18:02:29.907Z,20.62
2022-08-20T18:04:57.594Z,20.48
2022-08-20T18:07:38.960Z,20.48
2022-08-20T18:10:11.721Z,20.42
2022-08-20T18:13:20.070Z,20.42
2022-08-20T18:15:54.030Z,20.40
2022-08-20T18:18:50.922Z,20.41
2022-08-20T18:21:37.395Z,20.49
2022-08-20T18:24:12.990Z,20.34
2022-08-20T18:26:42.620Z,20.48
2022-08-20T18:29:20.127Z,20.42
2022-08-20T18:32:04.429Z,20.41
2022-08-20T18:34:31.889Z,20.21
2022-08-20T18:37:20.104Z,20.07
2022-08-20T18:39:50.123Z,20.17
2022-08-20T18:42:32.941Z,20.12
2022-08-20T18:45:01.114Z,20.05
2022-08-20T18:47:35.089Z,20.03
2022-08-20T18:50:16.190Z,20.22
2022-08-20T18:52:48.136Z,20.11
2022-08-20T18:55:35.616Z,20.08
2022-08-20T18:58:12.696Z,19.89
2022-08-20T19:00:52.059Z,19.87
2022-08-20T19:03:30.410Z,19.77
2022-08-20T19:06:41.313Z,19.90
2022-08-20T19:09:29.736Z,19.99
2022-08-20T19:12:54.838Z,19.96
2022-08-20T19:15:24.911Z,20.07
2022-08-20T19:18:15.894Z,19.90
2022-08-20T19:20:53.084Z,19.88
2022-08-20T19:23:40.581Z,19.89
2022-08-20T19:26:25.460Z,19.77
2022-08-20T19:28:59.731Z,19.67
2022-08-20T19:31:28.696Z,19.62
2022-08-20T19:34:19.540Z,19.67
2022-08-20T19:37:09.085Z,19.64
2022-08-20T19:39:49.739Z,19.69
2022-08-20T19:42:30.004Z,19.88
2022-08-20T19:45:04.678Z,19.78
2022-08-20T19:47:45.724Z,19.77
2022-08-20T19:50:35.713Z,19.71
2022-08-20T19:53:29.932Z,19.81
2022-08-20T19:56:07.088Z,19.77
2022-08-20T19:58:35.435Z,19.63
2022-08-20T20:01:05.093Z,19.84
2022-08-20T20:03:35.419Z,19.79
2022-08-20T20:06:18.159Z,19.80
2022-08-20T20:08:50.500Z,19.70
2022-08-20T20:11:25.935Z,19.83
2022-08-20T20:13:53.989Z,19.76
2022-08-20T20:16:21.489Z,19.68
2022-08-20T20:19:15.759Z,19.66
2022-08-20T20:22:01.195Z,19.65
2022-08-20T20:24:49.264Z,19.67
2022-08-20T20:27:22.665Z,19.62
2022-08-20T20:29:58.927Z,19.59
2022-08-20T20:32:27.947Z,19.52
2022-08-20T20:34:58.529Z,19.52
2022-08-20T20:37:46.615Z,19.51
2022-08-20T20:40:28.447Z,19.54
2022-08-20T20:43:10.256Z,19.56
2022-08-20T20:45:57.754Z,19.59
2022-08-20T20:48:27.515Z,19.60
2022-08-20T20:51:16.712Z,19.60
2022-08-20T20:53:51.659Z,19.51
2022-08-20T20:56:42.672Z,19.58
2022-08-20T20:59:16.085Z,19.63
2022-08-20T21:01:49.988Z,19.56
2022-08-20T21:04:38.495Z,19.64
2022-08-20T21:07:10.575Z,19.60
2022-08-20T21:09:39.590Z,19.73
2022-08-20T21:12:08.746Z,19.62
2022-08-20T21:14:37.165Z,19.70
2022-08-20T21:17:07.343Z,19.75
2022-08-20T21:19:35.246Z,19.73
2022-08-20T21:22:15.034Z,19.71
2022-08-20T21:24:42.692Z,19.70
2022-08-20T21:27:22.068Z,19.76
2022-08-20T21:29:50.313Z,19.78
2022-08-20T21:32:18.318Z,19.76
2022-08-20T21:34:46.760Z,19.71
2022-08-20T21:37:15.793Z,19.72
2022-08-20T21:39:43.704Z,19.71
2022-08-20T21:42:22.949Z,19.69
2022-08-20T21:44:58.565Z,19.72
2022-08-20T21:47:26.462Z,19.72
2022-08-20T21:49:54.333Z,19.78
2022-08-20T21:52:23.127Z,19.73
2022-08-20T21:54:50.603Z,19.71
2022-08-20T21:57:20.632Z,19.69
2022-08-20T21:59:49.515Z,19.85
2022-08-20T22:02:19.561Z,19.88
2022-08-20T22:04:47.474Z,19.88
2022-08-20T22:07:15.983Z,19.88
2022-08-20T22:09:43.524Z,19.92
2022-08-20T22:12:18.758Z,19.93
2022-08-20T22:14:46.887Z,19.93
2022-08-20T22:17:15.542Z,19.92
2022-08-20T22:19:46.113Z,20.02
2022-08-20T22:22:15.657Z,19.89
2022-08-20T22:24:48.404Z,19.94
2022-08-20T22:27:16.493Z,19.88
2022-08-20T22:29:43.939Z,19.97
2022-08-20T22:32:13.075Z,19.80
2022-08-20T22:34:41.420Z,19.80
2022-08-20T22:37:10.118Z,19.82
2022-08-20T22:39:38.004Z,19.83
2022-08-20T22:42:10.573Z,19.84
2022-08-20T22:44:38.189Z,19.92
2022-08-20T22:47:07.626Z,19.85
2022-08-20T22:49:37.132Z,19.81
2022-08-20T22:52:15.115Z,19.76
2022-08-20T22:54:44.636Z,19.97
2022-08-20T22:57:13.454Z,19.86
2022-08-20T22:59:53.377Z,19.85
2022-08-20T23:02:22.372Z,19.86
2022-08-20T23:04:50.326Z,19.88
2022-08-20T23:07:19.688Z,19.80
2022-08-20T23:09:47.573Z,19.81
2022-08-20T23:12:15.163Z,19.73
2022-08-20T23:14:42.807Z,19.77
2022-08-20T23:17:23.559Z,19.84
2022-08-20T23:19:51.344Z,19.79
2022-08-20T23:22:19.967Z,19.84
2022-08-20T23:24:47.827Z,19.94
2022-08-20T23:27:17.590Z,19.74
2022-08-20T23:29:45.378Z,19.67
2022-08-20T23:32:13.548Z,19.59
2022-08-20T23:34:49.108Z,19.59
2022-08-20T23:37:18.185Z,19.68
2022-08-20T23:39:46.597Z,19.74
2022-08-20T23:42:23.442Z,19.74
2022-08-20T23:44:51.388Z,19.72
2022-08-20T23:47:20.083Z,19.71
2022-08-20T23:49:47.973Z,19.71
2022-08-20T23:52:16.133Z,19.61
2022-08-20T23:54:43.585Z,19.54
2022-08-20T23:57:11.292Z,19.41
2022-08-20T23:59:39.227Z,19.46
